Terminal Aerodrome Forecast
Issued by NWS

Home | Current Version | Previous Version | Text Only | Print | Product List | Glossary On
Versions: 1 2 3 4 5 6 7 8 9 10 11 12 13 14 15 16 17 18 19 20 21 22 23
000
FTUS45 KGJT 211124
TAFRIL
TAF
KRIL 211124Z 2112/2212 08006KT P6SM SCT110 BKN200
     FM211400 VRB03KT P6SM VCSH SCT060 BKN090
      TEMPO 2114/2118 VRB15G30KT -SHRA BKN060
     FM212000 35008KT P6SM VCTS SCT070CB SCT100
     FM220100 17008KT P6SM VCTS SCT040CB BKN080
     FM220600 11007KT P6SM VCSH SCT040 BKN080=

USA.gov is the U.S. government's official web portal to all federal, state and local government web resources and services.